createdAt,value
2018-12-14T00:01:03.994Z,15.37
2018-12-14T00:03:37.831Z,17.27
2018-12-14T00:06:11.685Z,16.37
2018-12-14T00:08:45.504Z,14.90
2018-12-14T00:11:19.992Z,16.80
2018-12-14T00:13:53.710Z,16.33
2018-12-14T00:16:27.457Z,14.97
2018-12-14T00:19:01.231Z,14.93
2018-12-14T00:21:35.704Z,16.57
2018-12-14T00:24:09.461Z,15.10
2018-12-14T00:26:44.000Z,15.67
2018-12-14T00:29:17.811Z,15.90
2018-12-14T00:31:51.993Z,19.53
2018-12-14T00:34:27.267Z,18.30
2018-12-14T00:37:01.373Z,14.63
2018-12-14T00:39:36.189Z,16.93
2018-12-14T00:42:11.323Z,15.67
2018-12-14T00:44:45.860Z,16.60
2018-12-14T00:47:20.407Z,16.37
2018-12-14T00:49:54.179Z,16.83
2018-12-14T00:52:28.694Z,17.17
2018-12-14T00:55:02.516Z,16.83
2018-12-14T00:57:37.033Z,15.90
2018-12-14T01:00:13.004Z,17.40
2018-12-14T01:02:47.533Z,16.50
2018-12-14T01:05:21.338Z,15.63
2018-12-14T01:07:55.193Z,14.67
2018-12-14T01:10:28.944Z,13.63
2018-12-14T01:13:03.436Z,14.80
2018-12-14T01:15:37.469Z,15.93
2018-12-14T01:18:12.019Z,12.77
2018-12-14T01:20:45.836Z,14.00
2018-12-14T01:23:19.611Z,13.40
2018-12-14T01:25:53.706Z,11.70
2018-12-14T01:28:27.537Z,14.17
2018-12-14T01:31:02.086Z,14.80
2018-12-14T01:33:36.169Z,10.93
2018-12-14T01:36:10.698Z,11.33
2018-12-14T01:38:44.468Z,14.20
2018-12-14T01:41:18.242Z,10.50
2018-12-14T01:43:52.367Z,11.60
2018-12-14T01:46:26.169Z,10.70
2018-12-14T01:49:00.296Z,10.03
2018-12-14T01:51:35.101Z,9.03
2018-12-14T01:54:08.857Z,9.83
2018-12-14T01:56:43.534Z,7.30
2018-12-14T01:59:17.422Z,7.23
2018-12-14T02:01:51.493Z,10.03
2018-12-14T02:04:26.014Z,8.57
2018-12-14T02:06:59.839Z,7.93
2018-12-14T02:09:33.626Z,7.73
2018-12-14T02:12:11.339Z,6.10
2018-12-14T02:14:41.179Z,7.30
2018-12-14T02:17:15.995Z,7.70
2018-12-14T02:19:50.501Z,7.63
2018-12-14T02:22:24.521Z,7.73
2018-12-14T02:24:59.341Z,6.63
2018-12-14T02:27:33.306Z,6.23
2018-12-14T02:33:28.302Z,7.60
2018-12-14T02:36:02.046Z,7.00
2018-12-14T02:38:36.065Z,7.83
2018-12-14T02:41:10.229Z,8.13
2018-12-14T02:43:43.960Z,7.30
2018-12-14T02:46:18.064Z,7.77
2018-12-14T02:48:52.158Z,6.33
2018-12-14T02:51:26.698Z,8.47
2018-12-14T02:54:00.459Z,6.77
2018-12-14T02:56:34.185Z,8.33
2018-12-14T02:59:08.730Z,8.97
2018-12-14T03:01:43.503Z,9.33
2018-12-14T03:07:03.768Z,7.37
2018-12-14T03:09:37.609Z,8.93
2018-12-14T03:12:11.395Z,7.93
2018-12-14T03:14:45.523Z,9.67
2018-12-14T03:17:19.262Z,6.67
2018-12-14T03:19:53.388Z,6.83
2018-12-14T03:22:27.167Z,8.67
2018-12-14T03:25:01.278Z,8.17
2018-12-14T03:27:35.065Z,7.77
2018-12-14T03:30:10.837Z,9.03
2018-12-14T03:32:44.890Z,6.90
2018-12-14T03:35:19.504Z,7.43
2018-12-14T03:37:54.454Z,8.67
2018-12-14T03:40:29.008Z,8.00
2018-12-14T03:43:03.033Z,8.77
2018-12-14T03:45:36.785Z,8.83
2018-12-14T03:48:11.286Z,6.70
2018-12-14T03:50:46.538Z,8.87
2018-12-14T03:53:20.850Z,6.90
2018-12-14T03:55:54.655Z,8.07
2018-12-14T03:58:28.477Z,8.87
2018-12-14T04:01:03.023Z,7.67
2018-12-14T04:03:36.962Z,8.23
2018-12-14T04:06:10.757Z,8.73
2018-12-14T04:11:24.369Z,9.90
2018-12-14T04:13:58.927Z,7.30
2018-12-14T04:16:32.734Z,10.90
2018-12-14T04:19:06.537Z,9.67
2018-12-14T04:21:40.471Z,10.50
2018-12-14T04:24:14.285Z,8.17
2018-12-14T04:26:48.048Z,8.27
2018-12-14T04:29:21.828Z,8.63
2018-12-14T04:31:55.567Z,8.63
2018-12-14T04:37:10.051Z,11.30
2018-12-14T04:39:44.197Z,8.30
2018-12-14T04:42:17.996Z,8.20
2018-12-14T04:47:37.629Z,8.83
2018-12-14T04:50:12.199Z,10.10
2018-12-14T04:52:46.279Z,8.17
2018-12-14T04:55:20.044Z,11.70
2018-12-14T04:57:53.779Z,8.17
2018-12-14T05:00:28.320Z,9.17
2018-12-14T05:03:02.383Z,9.70
2018-12-14T05:05:36.142Z,11.13
2018-12-14T05:08:09.882Z,9.10
2018-12-14T05:10:43.704Z,9.23
2018-12-14T05:13:17.478Z,9.60
2018-12-14T05:15:51.254Z,9.63
2018-12-14T05:21:05.530Z,9.57
2018-12-14T05:23:39.392Z,10.47
2018-12-14T05:26:13.170Z,10.57
2018-12-14T05:28:46.932Z,9.20
2018-12-14T05:31:21.388Z,8.63
2018-12-14T05:33:55.199Z,8.97
2018-12-14T05:36:29.202Z,10.27
2018-12-14T05:39:02.954Z,11.43
2018-12-14T05:41:36.756Z,14.70
2018-12-14T05:44:10.554Z,11.30
2018-12-14T05:46:44.355Z,10.83
2018-12-14T05:49:18.200Z,10.47
2018-12-14T05:51:51.985Z,10.20
2018-12-14T05:54:25.742Z,10.90
2018-12-14T05:56:59.539Z,9.07
2018-12-14T05:59:33.602Z,12.07
2018-12-14T06:02:07.414Z,12.27
2018-12-14T06:04:41.175Z,10.40
2018-12-14T06:07:14.905Z,10.70
2018-12-14T06:09:48.638Z,12.63
2018-12-14T06:12:22.377Z,11.20
2018-12-14T06:14:56.165Z,12.80
2018-12-14T06:20:10.927Z,10.73
2018-12-14T06:22:44.725Z,12.13
2018-12-14T06:25:19.251Z,11.00
2018-12-14T06:27:52.981Z,12.10
2018-12-14T06:30:27.462Z,11.60
2018-12-14T06:33:01.257Z,11.60
2018-12-14T06:35:35.037Z,12.00
2018-12-14T06:40:48.829Z,15.00
2018-12-14T06:43:22.748Z,11.80
2018-12-14T06:45:56.841Z,12.57
2018-12-14T06:48:30.884Z,12.27
2018-12-14T06:51:05.368Z,12.70
2018-12-14T06:53:39.165Z,13.57
2018-12-14T06:56:12.932Z,13.23
2018-12-14T06:58:47.410Z,13.93
2018-12-14T07:01:21.176Z,12.53
2018-12-14T07:03:54.978Z,32.23
2018-12-14T07:06:29.036Z,13.70
2018-12-14T07:09:02.833Z,11.57
2018-12-14T07:11:36.897Z,13.33
2018-12-14T07:16:51.219Z,12.83
2018-12-14T07:19:25.332Z,11.20
2018-12-14T07:21:59.048Z,12.33
2018-12-14T07:24:33.556Z,12.60
2018-12-14T07:27:07.296Z,13.10
2018-12-14T07:29:41.427Z,14.53
2018-12-14T07:32:15.938Z,12.90
2018-12-14T07:34:50.397Z,13.67
2018-12-14T07:37:24.200Z,10.83
2018-12-14T07:39:57.953Z,12.60
2018-12-14T07:42:31.672Z,10.07
2018-12-14T07:45:05.725Z,11.33
2018-12-14T07:47:39.499Z,16.47
2018-12-14T07:50:13.229Z,11.13
2018-12-14T07:52:47.094Z,12.67
2018-12-14T07:55:20.843Z,13.73
2018-12-14T07:57:54.942Z,10.43
2018-12-14T08:00:29.779Z,11.07
2018-12-14T08:03:03.530Z,12.70
2018-12-14T08:05:37.356Z,11.50
2018-12-14T08:10:50.681Z,9.50
2018-12-14T08:16:04.045Z,11.53
2018-12-14T08:18:37.908Z,12.87
2018-12-14T08:21:11.674Z,11.83
2018-12-14T08:23:45.455Z,11.50
2018-12-14T08:28:59.497Z,10.27
2018-12-14T08:31:33.315Z,11.27
2018-12-14T08:34:07.041Z,13.13
2018-12-14T08:36:40.863Z,9.73
2018-12-14T08:39:14.622Z,12.13
2018-12-14T08:41:48.420Z,11.50
2018-12-14T08:44:22.217Z,12.77
2018-12-14T08:46:55.978Z,9.20
2018-12-14T08:49:29.714Z,11.53
2018-12-14T08:52:03.525Z,11.40
2018-12-14T08:54:37.306Z,12.20
2018-12-14T08:57:11.824Z,11.60
2018-12-14T08:59:46.336Z,11.13
2018-12-14T09:05:01.491Z,10.17
2018-12-14T09:07:35.308Z,13.23
2018-12-14T09:12:48.898Z,11.27
2018-12-14T09:15:23.493Z,11.90
2018-12-14T09:17:57.554Z,13.87
2018-12-14T09:20:32.066Z,14.57
2018-12-14T09:23:06.509Z,15.20
2018-12-14T09:25:40.358Z,9.53
2018-12-14T09:30:59.033Z,9.70
2018-12-14T09:33:32.875Z,8.90
2018-12-14T09:36:07.673Z,9.13
2018-12-14T09:41:21.337Z,10.47
2018-12-14T09:43:56.660Z,10.13
2018-12-14T09:46:36.875Z,8.10
2018-12-14T09:49:05.229Z,11.17
2018-12-14T09:51:39.714Z,8.87
2018-12-14T09:54:13.504Z,11.10
2018-12-14T09:56:47.245Z,10.50
2018-12-14T09:59:21.018Z,10.70
2018-12-14T10:01:54.768Z,13.30
2018-12-14T10:04:28.576Z,9.93
2018-12-14T10:07:02.323Z,10.10
2018-12-14T10:09:36.098Z,10.53
2018-12-14T10:12:10.877Z,12.77
2018-12-14T10:14:44.680Z,8.70
2018-12-14T10:17:18.480Z,8.40
2018-12-14T10:19:52.199Z,10.27
2018-12-14T10:22:25.998Z,12.47
2018-12-14T10:24:59.737Z,9.53
2018-12-14T10:30:13.621Z,10.97
2018-12-14T10:32:47.455Z,10.83
2018-12-14T10:35:21.429Z,13.47
2018-12-14T10:37:55.891Z,12.37
2018-12-14T10:40:29.609Z,9.53
2018-12-14T10:43:03.389Z,10.37
2018-12-14T10:45:37.185Z,12.67
2018-12-14T10:48:10.917Z,16.37
2018-12-14T10:50:44.689Z,11.63
2018-12-14T10:53:19.224Z,11.87
2018-12-14T10:55:53.264Z,11.03
2018-12-14T10:58:27.134Z,9.50
2018-12-14T11:01:19.338Z,9.63
2018-12-14T11:06:34.973Z,10.10
2018-12-14T11:09:10.000Z,11.43
2018-12-14T11:11:44.623Z,9.17
2018-12-14T11:14:18.324Z,10.23
2018-12-14T11:16:53.101Z,11.00
2018-12-14T11:19:27.164Z,11.07
2018-12-14T11:22:01.636Z,9.67
2018-12-14T11:24:35.386Z,9.57
2018-12-14T11:27:09.857Z,11.10
2018-12-14T11:29:43.687Z,9.20
2018-12-14T11:32:17.486Z,9.60
2018-12-14T11:34:51.309Z,9.73
2018-12-14T11:37:25.104Z,9.23
2018-12-14T11:39:59.911Z,9.03
2018-12-14T11:42:33.690Z,10.00
2018-12-14T11:45:09.909Z,8.27
2018-12-14T11:47:43.678Z,9.43
2018-12-14T11:50:17.735Z,10.47
2018-12-14T11:52:51.424Z,10.97
2018-12-14T11:55:25.219Z,9.20
2018-12-14T11:57:58.992Z,10.27
2018-12-14T12:00:33.092Z,8.90
2018-12-14T12:03:07.605Z,9.37
2018-12-14T12:05:42.583Z,11.20
2018-12-14T12:08:16.757Z,9.87
2018-12-14T12:10:50.555Z,10.50
2018-12-14T12:13:25.135Z,11.23
2018-12-14T12:15:58.868Z,10.47
2018-12-14T12:18:32.621Z,11.10
2018-12-14T12:21:06.379Z,9.37
2018-12-14T12:23:40.194Z,9.83
2018-12-14T12:26:13.917Z,10.07
2018-12-14T12:28:47.707Z,8.77
2018-12-14T12:31:21.462Z,8.87
2018-12-14T12:33:55.212Z,9.80
2018-12-14T12:36:30.444Z,11.80
2018-12-14T12:41:45.685Z,11.70
2018-12-14T12:44:19.613Z,13.10
2018-12-14T12:46:53.370Z,11.30
2018-12-14T12:49:27.867Z,10.83
2018-12-14T12:52:01.619Z,10.57
2018-12-14T12:54:36.455Z,8.73
2018-12-14T12:57:10.172Z,11.83
2018-12-14T12:59:44.007Z,10.90
2018-12-14T13:02:18.010Z,9.33
2018-12-14T13:04:51.809Z,10.80
2018-12-14T13:07:25.981Z,13.53
2018-12-14T13:09:59.812Z,10.13
2018-12-14T13:12:33.644Z,10.60
2018-12-14T13:15:08.571Z,11.13
2018-12-14T13:17:42.347Z,10.40
2018-12-14T13:20:16.454Z,11.93
2018-12-14T13:22:50.543Z,11.37
2018-12-14T13:25:24.319Z,10.70
2018-12-14T13:27:58.021Z,10.70
2018-12-14T13:35:56.294Z,16.53
2018-12-14T13:38:30.471Z,16.57
2018-12-14T13:41:04.206Z,11.57
2018-12-14T13:46:19.457Z,11.70
2018-12-14T13:48:54.097Z,12.93
2018-12-14T13:51:27.798Z,10.57
2018-12-14T13:56:47.425Z,12.43
2018-12-14T13:59:22.055Z,13.83
2018-12-14T14:01:55.785Z,12.53
2018-12-14T14:04:29.564Z,13.20
2018-12-14T14:07:03.281Z,14.20
2018-12-14T14:09:37.088Z,13.70
2018-12-14T14:12:10.991Z,13.17
2018-12-14T14:14:44.758Z,13.47
2018-12-14T14:17:18.539Z,15.80
2018-12-14T14:19:52.370Z,11.37
2018-12-14T14:22:26.080Z,11.37
2018-12-14T14:24:59.836Z,12.43
2018-12-14T14:30:15.000Z,13.27
2018-12-14T14:32:49.566Z,13.50
2018-12-14T14:35:23.330Z,13.53
2018-12-14T14:37:57.610Z,14.90
2018-12-14T14:40:30.936Z,12.77
2018-12-14T14:43:05.437Z,13.47
2018-12-14T14:45:40.000Z,12.87
2018-12-14T14:48:14.099Z,13.17
2018-12-14T14:50:47.981Z,11.93
2018-12-14T14:53:21.726Z,12.87
2018-12-14T14:55:55.439Z,12.37
2018-12-14T14:58:29.194Z,10.67
2018-12-14T15:01:02.960Z,10.13
2018-12-14T15:03:36.706Z,14.80
2018-12-14T15:08:51.913Z,13.73
2018-12-14T15:11:26.443Z,11.87
2018-12-14T15:14:00.900Z,11.83
2018-12-14T15:16:34.676Z,15.33
2018-12-14T15:19:08.409Z,13.00
2018-12-14T15:21:42.208Z,13.60
2018-12-14T15:24:16.009Z,12.87
2018-12-14T15:26:49.762Z,13.57
2018-12-14T15:29:23.540Z,12.33
2018-12-14T15:31:57.294Z,14.30
2018-12-14T15:34:31.749Z,12.60
2018-12-14T15:37:05.485Z,10.53
2018-12-14T15:39:39.245Z,12.43
2018-12-14T15:42:12.992Z,12.53
2018-12-14T15:47:24.772Z,10.83
2018-12-14T15:49:58.592Z,12.87
2018-12-14T15:52:32.317Z,11.20
2018-12-14T15:57:46.585Z,13.57
2018-12-14T16:00:20.388Z,14.13
2018-12-14T16:02:54.125Z,13.07
2018-12-14T16:08:09.598Z,12.07
2018-12-14T16:10:43.426Z,10.50
2018-12-14T16:13:17.173Z,11.23
2018-12-14T16:15:50.934Z,11.33
2018-12-14T16:21:07.442Z,11.13
2018-12-14T16:26:20.695Z,9.20
2018-12-14T16:28:54.491Z,9.90
2018-12-14T16:31:28.197Z,12.60
2018-12-14T16:36:41.789Z,9.93
2018-12-14T16:39:16.351Z,11.27
2018-12-14T16:41:50.378Z,9.10
2018-12-14T16:47:04.315Z,11.93
2018-12-14T16:49:38.139Z,9.13
2018-12-14T16:52:11.897Z,9.77
2018-12-14T16:54:46.358Z,10.23
2018-12-14T16:57:20.079Z,10.90
2018-12-14T17:02:33.687Z,8.60
2018-12-14T17:05:07.516Z,10.90
2018-12-14T17:07:41.290Z,11.23
2018-12-14T17:10:16.120Z,10.67
2018-12-14T17:12:50.565Z,10.53
2018-12-14T17:15:24.355Z,11.13
2018-12-14T17:17:58.086Z,9.50
2018-12-14T17:20:31.874Z,11.50
2018-12-14T17:23:05.699Z,9.23
2018-12-14T17:25:39.502Z,8.87
2018-12-14T17:28:13.285Z,8.93
2018-12-14T17:33:28.460Z,16.67
2018-12-14T17:36:03.027Z,15.77
2018-12-14T17:38:37.067Z,16.47
2018-12-14T17:41:10.820Z,10.40
2018-12-14T17:43:44.579Z,11.57
2018-12-14T17:46:18.369Z,10.20
2018-12-14T17:48:52.149Z,9.87
2018-12-14T17:51:25.917Z,9.67
2018-12-14T17:53:59.704Z,10.70
2018-12-14T17:56:33.492Z,9.37
2018-12-14T17:59:07.287Z,11.30
2018-12-14T18:01:41.093Z,11.80
2018-12-14T18:04:14.888Z,11.77
2018-12-14T18:06:48.929Z,12.50
2018-12-14T18:09:22.716Z,12.03
2018-12-14T18:11:56.429Z,11.57
2018-12-14T18:14:30.252Z,11.07
2018-12-14T18:17:04.021Z,10.80
2018-12-14T18:19:37.749Z,11.70
2018-12-14T18:22:11.510Z,13.10
2018-12-14T18:24:45.289Z,11.60
2018-12-14T18:27:19.828Z,9.47
2018-12-14T18:29:54.341Z,11.07
2018-12-14T18:32:28.912Z,11.00
2018-12-14T18:35:02.628Z,9.77
2018-12-14T18:37:36.913Z,10.37
2018-12-14T18:42:50.685Z,9.83
2018-12-14T18:45:24.507Z,11.47
2018-12-14T18:47:58.288Z,10.33
2018-12-14T18:50:32.685Z,11.27
2018-12-14T18:53:07.152Z,10.57
2018-12-14T18:55:41.308Z,10.60
2018-12-14T18:58:15.823Z,9.53
2018-12-14T19:00:49.584Z,11.73
2018-12-14T19:06:04.713Z,9.80
2018-12-14T19:08:38.519Z,9.90
2018-12-14T19:11:12.242Z,10.27
2018-12-14T19:13:46.728Z,10.40
2018-12-14T19:16:20.459Z,9.20
2018-12-14T19:18:54.588Z,10.60
2018-12-14T19:21:29.122Z,12.93
2018-12-14T19:24:03.182Z,12.07
2018-12-14T19:26:37.197Z,10.47
2018-12-14T19:29:12.042Z,10.23
2018-12-14T19:31:46.072Z,10.83
2018-12-14T19:34:20.903Z,12.50
2018-12-14T19:36:55.700Z,12.53
2018-12-14T19:39:29.437Z,12.20
2018-12-14T19:42:03.973Z,13.23
2018-12-14T19:44:38.430Z,11.63
2018-12-14T19:47:12.212Z,13.73
2018-12-14T19:57:55.669Z,14.77
2018-12-14T20:00:29.484Z,13.03
2018-12-14T20:03:03.940Z,12.63
2018-12-14T20:05:38.014Z,11.27
2018-12-14T20:10:51.300Z,9.07
2018-12-14T20:13:25.091Z,11.57
2018-12-14T20:15:58.816Z,12.53
2018-12-14T20:18:32.541Z,10.30
2018-12-14T20:21:06.625Z,11.20
2018-12-14T20:23:40.693Z,11.43
2018-12-14T20:26:14.505Z,9.20
2018-12-14T20:28:48.986Z,11.47
2018-12-14T20:31:23.480Z,9.80
2018-12-14T20:33:57.276Z,8.77
2018-12-14T20:36:31.755Z,8.00
2018-12-14T20:39:05.634Z,12.00
2018-12-14T20:41:39.637Z,8.50
2018-12-14T20:46:54.894Z,11.07
2018-12-14T20:49:29.726Z,10.13
2018-12-14T20:52:03.927Z,10.63
2018-12-14T20:54:37.678Z,10.50
2018-12-14T20:57:11.434Z,12.03
2018-12-14T21:02:25.250Z,10.37
2018-12-14T21:04:59.081Z,8.57
2018-12-14T21:07:32.877Z,10.63
2018-12-14T21:10:07.437Z,11.03
2018-12-14T21:15:21.048Z,11.23
2018-12-14T21:17:54.894Z,10.20
2018-12-14T21:20:28.652Z,12.10
2018-12-14T21:23:02.428Z,10.70
2018-12-14T21:25:37.189Z,12.57
2018-12-14T21:28:11.007Z,10.13
2018-12-14T21:30:44.749Z,9.43
2018-12-14T21:33:19.405Z,8.93
2018-12-14T21:35:53.528Z,8.57
2018-12-14T21:38:27.310Z,9.77
2018-12-14T21:41:01.847Z,8.70
2018-12-14T21:46:17.105Z,8.63
2018-12-14T21:48:51.221Z,8.27
2018-12-14T21:51:25.408Z,9.50
2018-12-14T21:53:59.245Z,9.23
2018-12-14T21:56:32.959Z,9.70
2018-12-14T21:59:07.472Z,9.23
2018-12-14T22:01:41.204Z,8.93
2018-12-14T22:04:15.201Z,10.33
2018-12-14T22:06:49.858Z,9.93
2018-12-14T22:09:23.657Z,9.70
2018-12-14T22:11:57.455Z,9.33
2018-12-14T22:14:31.218Z,11.23
2018-12-14T22:19:44.923Z,10.63
2018-12-14T22:22:18.994Z,10.00
2018-12-14T22:24:53.083Z,10.87
2018-12-14T22:27:26.877Z,11.77
2018-12-14T22:30:00.591Z,11.37
2018-12-14T22:32:34.717Z,10.83
2018-12-14T22:35:09.954Z,12.03
2018-12-14T22:37:44.522Z,15.07
2018-12-14T22:40:19.404Z,12.13
2018-12-14T22:42:53.230Z,10.83
2018-12-14T22:48:12.895Z,11.77
2018-12-14T22:50:46.707Z,10.10
2018-12-14T22:53:20.475Z,11.27
2018-12-14T22:55:54.276Z,10.27
2018-12-14T22:58:29.110Z,10.57
2018-12-14T23:01:02.933Z,9.07
2018-12-14T23:03:36.706Z,11.47
2018-12-14T23:06:11.350Z,10.37
2018-12-14T23:08:45.625Z,11.33
2018-12-14T23:14:01.506Z,10.53
2018-12-14T23:22:03.113Z,9.00
2018-12-14T23:24:36.901Z,9.80
2018-12-14T23:27:10.633Z,8.60
2018-12-14T23:29:44.364Z,9.27
2018-12-14T23:37:48.978Z,11.17
2018-12-14T23:40:22.800Z,11.33
2018-12-14T23:42:56.537Z,9.33
2018-12-14T23:48:11.213Z,13.73
2018-12-14T23:50:45.748Z,11.30
2018-12-14T23:53:20.311Z,10.63
2018-12-14T23:55:54.021Z,10.50
2018-12-14T23:58:28.019Z,9.70
